AirNav   Duncan Aviation - Near you to keep you flying
 
 536 users online  

9CL2 Christensen Ranch Airport
Hollister, California, USA

GOING TO HOLLISTER?


FAA INFORMATION EFFECTIVE 03 NOVEMBER 2022

Location

FAA Identifier: 9CL2
Lat/Long: 36-52-17.8320N 121-20-13.7540W
36-52.297200N 121-20.229233W
36.8716200,-121.3371539
(estimated)
Elevation: 380 ft. / 116 m (estimated)
Variation: 15E (1985)
From city: 3 miles NE of HOLLISTER, CA
Time zone: UTC -8 (UTC -7 during Daylight Saving Time)
Zip code: 95023

Airport Operations

Airport use: Private use. Permission required prior to landing
Activation date: 11/1970
Control tower: no
ARTCC: OAKLAND CENTER
FSS: OAKLAND FLIGHT SERVICE STATION
Attendance: CONTINUOUS
Wind indicator: no
Segmented circle: no

Airport Communications

WX AWOS-3 at CVH (4 nm W): 120.425 (831-636-4394)
WX AWOS-3P at E16 (18 nm NW): 118.350 (408-918-7724)
WX ASOS at SNS (18 nm SW): PHONE 831-422-2830

Nearby radio navigation aids

VOR radial/distance  VOR name  Freq  Var
SNSr029/17.9SALINAS VORTAC117.3017E
PXNr273/28.4PANOCHE VORTAC112.6016E

Airport Services

Airframe service: NONE
Powerplant service: NONE

Runway Information

Runway 7/25

Dimensions: 3000 x 50 ft. / 914 x 15 m
Surface: asphalt
RUNWAY 7  RUNWAY 25
Traffic pattern: rightright

Airport Ownership and Management from official FAA records

Ownership: Privately-owned
Owner: F. L. CHRISTENSEN
PO BOX 25033
JACKSON, WY 83001
Phone 307-733-1789
Manager: Phone 408-637-7406

Additional Remarks

PVT USE ARPT LCTD ADJ TO RANCH RESIDENCE.
FOR CD CTC NORCAL APCH AT 916-361-3748.

Instrument Procedures

There are no published instrument procedures at 9CL2.

Some nearby airports with instrument procedures:

KCVH - Hollister Municipal Airport (4 nm W)
E16 - San Martin Airport (18 nm NW)
KSNS - Salinas Municipal Airport (18 nm SW)
KWVI - Watsonville Municipal Airport (22 nm W)
KOAR - Marina Municipal Airport (23 nm SW)
 
Loc | Ops | Rwys | IFR | FBO | Links
Com | Nav | Svcs | Stats | Notes
Area around 9CL2 (Christensen Ranch Airport)
 
Road maps at: MapQuest Bing Google
 
Aerial photo
No photo
 
Sectional chart

 
Airport distance calculator
Flying to Christensen Ranch Airport? Find the distance to fly.

From to 9CL2

Sunrise and sunset
Times for 27-Nov-2022
 Local
(UTC-8)
 Zulu
(UTC)
Morning civil twilight06:2914:29
Sunrise06:5714:57
Sunset16:4900:49
Evening civil twilight17:1701:17

Current date and time
Zulu (UTC)  28-Nov-2022 07:54:44
Local (UTC-8)  27-Nov-2022 23:54:44
 
METAR
KCVH 
4nm W 
280735Z AUTO 00000KT 10SM CLR 06/01 A3002 RMK A01
KSNS 
18nm SW 
280708Z AUTO 21003KT 1/4SM R31/1800V3000FT FG VV002 08/08 A3002 RMK AO2 T00830078
KE16 
18nm NW 
280735Z AUTO 35004KT 10SM CLR 07/04 A3003 RMK AO2 PWINO PNO
TAF
KSNS 
18nm SW 
280542Z 2806/2906 30004KT P6SM SCT008 BKN200 TEMPO 2806/2808 BKN005 FM280800 14008KT P6SM BKN010 FM281200 22004KT 1SM BR BKN003 FM281800 31018G24KT P6SM BKN040 FM290200 30009KT P6SM SKC
NOTAMs
Click for the latest NOTAMs
NOTAMs are issued by the DoD/FAA and will open in a separate window not controlled by AirNav.

 

 
 

Would you like to see your business listed on this page?

 If your business provides an interesting product or service to pilots, flight crews, aircraft, or users of the Christensen Ranch Airport, you should consider listing it here.  To start the listing process, click on the button below
 
Add a business
 

Other Pages about Christensen Ranch Airport

Update a link
 
Copyright © AirNav, LLC. All rights reserved. Privacy Policy  Contact